createdAt,value
2017-12-29T00:00:45.568Z,90.10
2017-12-29T00:01:45.565Z,89.63
2017-12-29T00:03:38.482Z,90.15
2017-12-29T00:04:38.504Z,90.24
2017-12-29T00:06:31.419Z,90.05
2017-12-29T00:07:31.428Z,89.96
2017-12-29T00:09:24.305Z,90.20
2017-12-29T00:10:24.324Z,89.82
2017-12-29T00:12:17.225Z,89.48
2017-12-29T00:13:17.222Z,89.67
2017-12-29T00:15:10.133Z,89.58
2017-12-29T00:16:10.131Z,89.96
2017-12-29T00:18:03.040Z,90.05
2017-12-29T00:19:03.043Z,90.05
2017-12-29T00:20:55.939Z,89.29
2017-12-29T00:21:55.948Z,89.63
2017-12-29T00:23:48.862Z,89.77
2017-12-29T00:24:48.858Z,90.05
2017-12-29T00:26:41.753Z,89.58
2017-12-29T00:27:41.762Z,89.58
2017-12-29T00:29:34.667Z,89.39
2017-12-29T00:30:34.674Z,89.58
2017-12-29T00:32:27.573Z,89.86
2017-12-29T00:33:27.586Z,90.05
2017-12-29T00:35:20.484Z,89.48
2017-12-29T00:36:20.494Z,89.29
2017-12-29T00:38:13.400Z,89.39
2017-12-29T00:39:13.399Z,89.58
2017-12-29T00:41:06.298Z,90.24
2017-12-29T00:42:06.316Z,90.15
2017-12-29T00:43:59.259Z,89.58
2017-12-29T00:44:59.248Z,89.58
2017-12-29T00:46:52.157Z,89.67
2017-12-29T00:47:52.173Z,90.24
2017-12-29T00:49:45.079Z,89.96
2017-12-29T00:50:45.080Z,89.48
2017-12-29T00:52:37.975Z,89.58
2017-12-29T00:53:37.990Z,89.58
2017-12-29T00:55:30.915Z,89.67
2017-12-29T00:56:30.899Z,89.48
2017-12-29T00:58:23.795Z,90.05
2017-12-29T00:59:23.811Z,89.86
2017-12-29T01:01:16.912Z,89.96
2017-12-29T01:02:16.902Z,89.86
2017-12-29T01:04:09.913Z,90.05
2017-12-29T01:05:09.926Z,89.96
2017-12-29T01:07:02.842Z,89.58
2017-12-29T01:08:02.843Z,89.67
2017-12-29T01:09:55.743Z,89.67
2017-12-29T01:10:55.756Z,89.48
2017-12-29T01:12:48.665Z,88.92
2017-12-29T01:13:48.660Z,89.39
2017-12-29T01:15:41.555Z,88.73
2017-12-29T01:16:41.572Z,88.63
2017-12-29T01:18:34.484Z,88.63
2017-12-29T01:19:34.473Z,88.44
2017-12-29T01:21:27.373Z,88.35
2017-12-29T01:22:27.387Z,88.54
2017-12-29T01:24:20.293Z,88.54
2017-12-29T01:25:20.298Z,88.44
2017-12-29T01:27:13.191Z,88.06
2017-12-29T01:28:13.209Z,88.44
2017-12-29T01:30:06.108Z,88.35
2017-12-29T01:31:06.112Z,88.54
2017-12-29T01:32:59.012Z,88.25
2017-12-29T01:33:59.020Z,88.16
2017-12-29T01:35:51.965Z,88.06
2017-12-29T01:36:51.940Z,88.35
2017-12-29T01:38:44.843Z,89.01
2017-12-29T01:39:44.853Z,89.11
2017-12-29T01:41:37.777Z,89.67
2017-12-29T01:42:37.764Z,89.11
2017-12-29T01:44:30.658Z,89.67
2017-12-29T01:45:30.676Z,89.96
2017-12-29T01:47:23.605Z,89.96
2017-12-29T01:48:23.590Z,89.67
2017-12-29T01:50:16.495Z,89.48
2017-12-29T01:51:16.507Z,89.58
2017-12-29T01:53:09.431Z,89.11
2017-12-29T01:54:09.422Z,89.29
2017-12-29T01:56:02.325Z,89.29
2017-12-29T01:57:02.330Z,89.58
2017-12-29T01:58:55.263Z,89.29
2017-12-29T01:59:55.258Z,89.39
2017-12-29T02:01:48.144Z,89.01
2017-12-29T02:02:48.149Z,89.01
2017-12-29T02:04:41.084Z,89.29
2017-12-29T02:05:41.056Z,89.39
2017-12-29T02:07:33.954Z,89.29
2017-12-29T02:08:33.961Z,89.01
2017-12-29T02:10:26.882Z,88.92
2017-12-29T02:11:26.867Z,89.20
2017-12-29T02:13:19.910Z,89.48
2017-12-29T02:14:19.941Z,89.11
2017-12-29T02:16:12.894Z,90.15
2017-12-29T02:17:12.888Z,89.77
2017-12-29T02:19:05.791Z,90.34
2017-12-29T02:20:05.819Z,90.81
2017-12-29T02:21:59.017Z,90.81
2017-12-29T02:22:59.023Z,90.34
2017-12-29T02:24:51.949Z,90.62
2017-12-29T02:25:51.942Z,90.43
2017-12-29T02:27:44.834Z,90.81
2017-12-29T02:28:44.850Z,90.81
2017-12-29T02:30:37.761Z,91.09
2017-12-29T02:31:37.756Z,90.91
2017-12-29T02:33:30.874Z,91.09
2017-12-29T02:34:30.896Z,91.09
2017-12-29T02:36:23.814Z,90.81
2017-12-29T02:37:23.815Z,90.91
2017-12-29T02:39:16.701Z,91.09
2017-12-29T02:40:16.719Z,90.91
2017-12-29T02:42:14.314Z,90.72
2017-12-29T02:43:14.294Z,90.43
2017-12-29T02:45:07.206Z,90.05
2017-12-29T02:46:07.213Z,90.34
2017-12-29T02:48:00.125Z,89.96
2017-12-29T02:49:00.129Z,89.39
2017-12-29T02:50:53.033Z,89.58
2017-12-29T02:51:53.041Z,89.48
2017-12-29T02:53:45.934Z,89.77
2017-12-29T02:54:45.945Z,89.48
2017-12-29T02:56:38.869Z,89.77
2017-12-29T02:57:38.853Z,90.15
2017-12-29T02:59:31.756Z,89.48
2017-12-29T03:00:31.771Z,89.77
2017-12-29T03:02:24.669Z,89.58
2017-12-29T03:03:24.872Z,89.29
2017-12-29T03:05:17.596Z,89.11
2017-12-29T03:06:17.590Z,88.92
2017-12-29T03:08:10.483Z,89.01
2017-12-29T03:09:10.495Z,89.11
2017-12-29T03:11:03.414Z,89.11
2017-12-29T03:12:03.411Z,88.92
2017-12-29T03:13:56.312Z,88.92
2017-12-29T03:14:56.319Z,89.20
2017-12-29T03:16:49.217Z,89.20
2017-12-29T03:17:49.230Z,89.11
2017-12-29T03:19:42.158Z,89.20
2017-12-29T03:20:42.147Z,88.40
2017-12-29T03:22:35.193Z,88.44
2017-12-29T03:23:35.236Z,88.73
2017-12-29T03:25:28.126Z,88.92
2017-12-29T03:26:28.131Z,88.06
2017-12-29T03:28:21.141Z,88.49
2017-12-29T03:29:21.092Z,88.16
2017-12-29T03:31:13.993Z,88.35
2017-12-29T03:32:13.999Z,88.54
2017-12-29T03:34:06.912Z,88.54
2017-12-29T03:35:06.902Z,88.59
2017-12-29T03:36:59.802Z,88.82
2017-12-29T03:37:59.812Z,88.68
2017-12-29T03:39:52.921Z,88.25
2017-12-29T03:40:52.913Z,88.87
2017-12-29T03:42:45.808Z,88.40
2017-12-29T03:43:45.824Z,88.68
2017-12-29T03:45:38.731Z,88.63
2017-12-29T03:46:38.725Z,88.25
2017-12-29T03:48:31.623Z,88.73
2017-12-29T03:49:31.638Z,88.78
2017-12-29T03:51:24.555Z,88.59
2017-12-29T03:52:24.556Z,88.68
2017-12-29T03:54:17.483Z,88.59
2017-12-29T03:55:17.482Z,88.73
2017-12-29T03:57:10.402Z,88.59
2017-12-29T03:58:10.422Z,88.59
2017-12-29T04:00:03.331Z,88.49
2017-12-29T04:01:03.338Z,88.68
2017-12-29T04:02:56.230Z,88.68
2017-12-29T04:03:56.248Z,88.68
2017-12-29T04:05:49.151Z,88.87
2017-12-29T04:06:49.145Z,89.06
2017-12-29T04:08:42.220Z,88.40
2017-12-29T04:09:42.224Z,88.49
2017-12-29T04:11:35.142Z,89.25
2017-12-29T04:12:35.136Z,88.78
2017-12-29T04:14:28.050Z,88.68
2017-12-29T04:15:28.053Z,88.40
2017-12-29T04:17:20.951Z,88.68
2017-12-29T04:18:20.953Z,89.25
2017-12-29T04:20:13.886Z,89.25
2017-12-29T04:21:13.869Z,89.44
2017-12-29T04:23:06.969Z,89.06
2017-12-29T04:24:06.966Z,88.87
2017-12-29T04:25:59.852Z,88.68
2017-12-29T04:26:59.873Z,88.40
2017-12-29T04:28:52.782Z,88.30
2017-12-29T04:29:52.780Z,88.59
2017-12-29T04:31:45.671Z,88.78
2017-12-29T04:32:45.684Z,88.49
2017-12-29T04:34:38.599Z,88.49
2017-12-29T04:35:38.602Z,88.78
2017-12-29T04:37:31.501Z,88.30
2017-12-29T04:38:31.510Z,88.68
2017-12-29T04:40:24.406Z,88.30
2017-12-29T04:41:24.411Z,88.78
2017-12-29T04:43:17.322Z,88.49
2017-12-29T04:44:17.328Z,88.87
2017-12-29T04:46:10.237Z,89.25
2017-12-29T04:47:10.250Z,89.06
2017-12-29T04:49:03.163Z,88.59
2017-12-29T04:50:03.167Z,88.78
2017-12-29T04:51:56.073Z,89.25
2017-12-29T04:52:56.081Z,89.25
2017-12-29T04:54:48.992Z,89.15
2017-12-29T04:55:48.999Z,89.15
2017-12-29T04:57:41.902Z,89.25
2017-12-29T04:58:41.913Z,88.87
2017-12-29T05:00:34.832Z,89.15
2017-12-29T05:01:34.835Z,89.63
2017-12-29T05:03:27.736Z,89.44
2017-12-29T05:04:27.742Z,89.25
2017-12-29T05:06:20.653Z,89.34
2017-12-29T05:07:20.671Z,89.25
2017-12-29T05:09:13.578Z,89.15
2017-12-29T05:10:13.566Z,89.34
2017-12-29T05:12:06.468Z,89.34
2017-12-29T05:13:06.484Z,88.87
2017-12-29T05:14:59.399Z,88.96
2017-12-29T05:15:59.394Z,89.25
2017-12-29T05:17:52.832Z,88.87
2017-12-29T05:18:52.615Z,88.87
2017-12-29T05:20:45.528Z,89.53
2017-12-29T05:21:45.529Z,88.68
2017-12-29T05:23:38.428Z,89.25
2017-12-29T05:24:38.433Z,89.63
2017-12-29T05:26:31.347Z,89.15
2017-12-29T05:27:31.342Z,89.06
2017-12-29T05:29:24.236Z,89.63
2017-12-29T05:30:24.291Z,89.34
2017-12-29T05:32:17.186Z,89.25
2017-12-29T05:33:17.165Z,89.25
2017-12-29T05:35:10.059Z,89.15
2017-12-29T05:36:10.084Z,88.87
2017-12-29T05:38:02.996Z,89.25
2017-12-29T05:39:02.990Z,89.15
2017-12-29T05:40:56.130Z,89.25
2017-12-29T05:41:56.117Z,89.06
2017-12-29T05:43:49.042Z,88.87
2017-12-29T05:44:49.037Z,89.06
2017-12-29T05:46:41.933Z,89.06
2017-12-29T05:47:41.946Z,89.06
2017-12-29T05:49:34.851Z,89.06
2017-12-29T05:50:34.858Z,89.15
2017-12-29T05:52:27.800Z,89.25
2017-12-29T05:53:27.784Z,89.34
2017-12-29T05:55:20.688Z,89.06
2017-12-29T05:56:20.703Z,88.96
2017-12-29T05:58:13.816Z,89.15
2017-12-29T05:59:13.870Z,89.25
2017-12-29T06:01:06.723Z,89.34
2017-12-29T06:02:06.740Z,89.44
2017-12-29T06:03:59.632Z,89.44
2017-12-29T06:04:59.636Z,89.15
2017-12-29T06:06:52.540Z,89.34
2017-12-29T06:07:52.544Z,89.53
2017-12-29T06:09:45.438Z,89.63
2017-12-29T06:10:45.445Z,89.63
2017-12-29T06:12:38.358Z,89.25
2017-12-29T06:13:38.360Z,89.34
2017-12-29T06:15:31.254Z,89.63
2017-12-29T06:16:31.264Z,89.44
2017-12-29T06:18:24.173Z,89.53
2017-12-29T06:19:24.177Z,89.72
2017-12-29T06:21:17.080Z,89.53
2017-12-29T06:22:17.085Z,89.44
2017-12-29T06:24:10.212Z,89.82
2017-12-29T06:25:10.209Z,89.34
2017-12-29T06:27:03.117Z,89.25
2017-12-29T06:28:03.126Z,89.53
2017-12-29T06:29:56.034Z,89.25
2017-12-29T06:30:56.034Z,89.63
2017-12-29T06:32:48.944Z,90.01
2017-12-29T06:33:48.944Z,90.01
2017-12-29T06:35:41.871Z,90.01
2017-12-29T06:36:41.850Z,90.01
2017-12-29T06:38:34.742Z,90.10
2017-12-29T06:39:34.757Z,90.01
2017-12-29T06:41:27.668Z,89.53
2017-12-29T06:42:27.672Z,89.25
2017-12-29T06:44:20.558Z,89.63
2017-12-29T06:45:20.569Z,89.63
2017-12-29T06:47:13.661Z,89.34
2017-12-29T06:48:13.647Z,89.63
2017-12-29T06:50:06.579Z,88.96
2017-12-29T06:51:06.569Z,89.06
2017-12-29T06:52:59.461Z,89.63
2017-12-29T06:53:59.477Z,89.63
2017-12-29T06:55:52.398Z,89.53
2017-12-29T06:56:52.399Z,89.53
2017-12-29T06:58:45.300Z,89.82
2017-12-29T06:59:45.313Z,89.53
2017-12-29T07:01:38.238Z,89.82
2017-12-29T07:02:38.235Z,90.20
2017-12-29T07:04:31.140Z,89.53
2017-12-29T07:05:31.151Z,90.10
2017-12-29T07:07:24.225Z,89.25
2017-12-29T07:08:24.231Z,89.63
2017-12-29T07:10:17.122Z,89.53
2017-12-29T07:11:17.137Z,89.25
2017-12-29T07:13:10.051Z,88.87
2017-12-29T07:14:10.046Z,89.63
2017-12-29T07:16:02.948Z,89.44
2017-12-29T07:17:02.956Z,89.06
2017-12-29T07:18:55.874Z,88.87
2017-12-29T07:19:55.871Z,89.25
2017-12-29T07:21:48.764Z,89.15
2017-12-29T07:22:48.775Z,89.06
2017-12-29T07:24:41.682Z,89.34
2017-12-29T07:25:41.676Z,88.87
2017-12-29T07:27:34.579Z,88.87
2017-12-29T07:28:34.589Z,89.15
2017-12-29T07:30:27.508Z,89.25
2017-12-29T07:31:27.491Z,89.06
2017-12-29T07:33:20.400Z,89.44
2017-12-29T07:34:20.410Z,89.06
2017-12-29T07:36:13.341Z,89.15
2017-12-29T07:37:13.323Z,89.25
2017-12-29T07:39:06.221Z,88.78
2017-12-29T07:40:06.232Z,89.44
2017-12-29T07:41:59.141Z,89.06
2017-12-29T07:42:59.143Z,89.15
2017-12-29T07:44:52.038Z,89.06
2017-12-29T07:45:52.056Z,89.34
2017-12-29T07:47:44.954Z,89.15
2017-12-29T07:48:44.961Z,89.15
2017-12-29T07:50:37.882Z,88.96
2017-12-29T07:51:37.865Z,89.06
2017-12-29T07:53:30.758Z,89.15
2017-12-29T07:54:30.771Z,89.25
2017-12-29T07:56:23.709Z,88.96
2017-12-29T07:57:23.681Z,88.96
2017-12-29T07:59:16.578Z,89.15
2017-12-29T08:00:16.592Z,89.15
2017-12-29T08:02:09.498Z,88.96
2017-12-29T08:03:09.496Z,89.15
2017-12-29T08:05:02.392Z,88.87
2017-12-29T08:06:02.407Z,88.96
2017-12-29T08:07:55.314Z,89.25
2017-12-29T08:08:55.312Z,88.96
2017-12-29T08:10:48.227Z,88.87
2017-12-29T08:11:48.247Z,88.96
2017-12-29T08:13:41.161Z,89.06
2017-12-29T08:14:41.158Z,89.34
2017-12-29T08:16:34.052Z,88.87
2017-12-29T08:17:34.069Z,88.96
2017-12-29T08:19:26.997Z,89.25
2017-12-29T08:20:26.985Z,89.34
2017-12-29T08:22:19.876Z,88.49
2017-12-29T08:23:19.891Z,88.78
2017-12-29T08:25:13.515Z,89.25
2017-12-29T08:26:13.503Z,88.68
2017-12-29T08:28:06.412Z,88.68
2017-12-29T08:29:06.430Z,88.30
2017-12-29T08:30:59.329Z,88.40
2017-12-29T08:31:59.335Z,88.49
2017-12-29T08:33:52.235Z,88.21
2017-12-29T08:34:52.245Z,88.11
2017-12-29T08:36:45.218Z,88.49
2017-12-29T08:37:45.204Z,88.02
2017-12-29T08:39:38.133Z,88.11
2017-12-29T08:40:38.126Z,88.21
2017-12-29T08:42:31.046Z,88.49
2017-12-29T08:43:31.049Z,88.11
2017-12-29T08:45:23.995Z,88.49
2017-12-29T08:46:23.969Z,88.30
2017-12-29T08:48:16.877Z,88.11
2017-12-29T08:49:16.887Z,88.21
2017-12-29T08:51:10.071Z,88.40
2017-12-29T08:52:10.064Z,88.49
2017-12-29T08:54:02.965Z,88.11
2017-12-29T08:55:02.976Z,88.21
2017-12-29T08:56:55.895Z,88.11
2017-12-29T08:57:55.882Z,88.49
2017-12-29T08:59:48.790Z,88.21
2017-12-29T09:00:48.793Z,88.11
2017-12-29T09:02:41.704Z,88.68
2017-12-29T09:03:41.696Z,88.96
2017-12-29T09:05:34.599Z,88.40
2017-12-29T09:06:34.617Z,88.87
2017-12-29T09:08:27.522Z,88.59
2017-12-29T09:09:27.531Z,88.59
2017-12-29T09:11:20.425Z,88.11
2017-12-29T09:12:20.432Z,88.30
2017-12-29T09:14:13.397Z,88.02
2017-12-29T09:15:13.347Z,88.21
2017-12-29T09:17:06.238Z,88.02
2017-12-29T09:18:06.251Z,88.78
2017-12-29T09:19:59.154Z,88.21
2017-12-29T09:20:59.156Z,88.30
2017-12-29T09:22:52.059Z,88.30
2017-12-29T09:23:52.068Z,88.40
2017-12-29T09:25:44.982Z,88.21
2017-12-29T09:26:44.975Z,88.21
2017-12-29T09:28:37.877Z,88.96
2017-12-29T09:29:37.888Z,88.30
2017-12-29T09:31:31.505Z,88.30
2017-12-29T09:32:31.479Z,88.40
2017-12-29T09:34:24.362Z,87.92
2017-12-29T09:35:24.383Z,87.83
2017-12-29T09:37:17.284Z,87.92
2017-12-29T09:38:17.290Z,87.92
2017-12-29T09:40:10.170Z,87.83
2017-12-29T09:41:10.188Z,87.54
2017-12-29T09:43:03.396Z,88.11
2017-12-29T09:44:03.115Z,88.02
2017-12-29T09:45:55.995Z,88.11
2017-12-29T09:46:56.011Z,87.64
2017-12-29T09:48:48.926Z,87.64
2017-12-29T09:49:48.914Z,88.02
2017-12-29T09:51:41.814Z,88.11
2017-12-29T09:52:41.829Z,87.54
2017-12-29T09:54:34.731Z,87.54
2017-12-29T09:55:34.734Z,87.64
2017-12-29T09:57:27.623Z,87.35
2017-12-29T09:58:27.644Z,86.50
2017-12-29T10:00:20.537Z,86.88
2017-12-29T10:01:20.543Z,86.50
2017-12-29T10:03:13.439Z,86.69
2017-12-29T10:04:13.450Z,85.88
2017-12-29T10:06:06.352Z,85.65
2017-12-29T10:07:06.360Z,86.03
2017-12-29T10:08:59.268Z,86.12
2017-12-29T10:09:59.278Z,86.60
2017-12-29T10:11:52.184Z,86.88
2017-12-29T10:12:52.193Z,86.88
2017-12-29T10:14:45.109Z,87.35
2017-12-29T10:15:45.106Z,87.16
2017-12-29T10:17:38.007Z,87.45
2017-12-29T10:18:38.018Z,87.35
2017-12-29T10:20:30.938Z,87.64
2017-12-29T10:21:30.932Z,87.64
2017-12-29T10:23:23.837Z,87.35
2017-12-29T10:24:23.848Z,86.79
2017-12-29T10:26:16.770Z,86.69
2017-12-29T10:27:16.760Z,86.41
2017-12-29T10:29:11.395Z,85.36
2017-12-29T10:30:11.409Z,85.55
2017-12-29T10:32:05.733Z,85.08
2017-12-29T10:33:05.716Z,85.27
2017-12-29T10:34:58.615Z,85.36
2017-12-29T10:35:58.634Z,85.55
2017-12-29T10:37:51.539Z,85.46
2017-12-29T10:38:51.542Z,84.99
2017-12-29T10:40:44.449Z,85.46
2017-12-29T10:41:44.452Z,85.97
2017-12-29T10:43:37.944Z,84.94
2017-12-29T10:44:37.938Z,84.55
2017-12-29T10:46:30.810Z,84.89
2017-12-29T10:47:30.819Z,84.99
2017-12-29T10:49:23.750Z,84.55
2017-12-29T10:50:23.732Z,84.55
2017-12-29T10:52:16.627Z,84.36
2017-12-29T10:53:16.635Z,84.27
2017-12-29T10:55:09.590Z,84.55
2017-12-29T10:56:09.556Z,83.98
2017-12-29T10:58:02.442Z,84.17
2017-12-29T10:59:02.455Z,84.17
2017-12-29T11:00:55.536Z,84.08
2017-12-29T11:01:55.516Z,84.55
2017-12-29T11:03:48.418Z,84.36
2017-12-29T11:04:48.454Z,84.55
2017-12-29T11:06:41.388Z,83.98
2017-12-29T11:07:41.415Z,83.80
2017-12-29T11:09:34.371Z,84.08
2017-12-29T11:10:34.385Z,84.17
2017-12-29T11:12:27.297Z,83.80
2017-12-29T11:13:27.300Z,83.98
2017-12-29T11:15:20.196Z,82.85
2017-12-29T11:16:20.210Z,83.42
2017-12-29T11:18:13.372Z,83.23
2017-12-29T11:19:13.325Z,83.80
2017-12-29T11:21:06.204Z,84.74
2017-12-29T11:22:06.217Z,83.80
2017-12-29T11:23:59.145Z,83.32
2017-12-29T11:24:59.121Z,83.23
2017-12-29T11:26:52.025Z,83.32
2017-12-29T11:27:52.038Z,83.80
2017-12-29T11:29:44.960Z,83.98
2017-12-29T11:30:44.952Z,84.08
2017-12-29T11:32:38.222Z,84.55
2017-12-29T11:33:38.230Z,84.84
2017-12-29T11:35:31.146Z,84.36
2017-12-29T11:36:31.149Z,84.46
2017-12-29T11:38:24.068Z,84.36
2017-12-29T11:39:24.079Z,84.94
2017-12-29T11:41:16.998Z,84.65
2017-12-29T11:42:16.989Z,84.17
2017-12-29T11:44:09.894Z,84.27
2017-12-29T11:45:09.929Z,84.74
2017-12-29T11:47:02.807Z,84.36
2017-12-29T11:48:02.802Z,84.17
2017-12-29T11:49:55.730Z,83.89
2017-12-29T11:50:55.713Z,83.98
2017-12-29T11:52:48.604Z,83.80
2017-12-29T11:53:48.617Z,83.80
2017-12-29T11:55:41.528Z,83.89
2017-12-29T11:56:41.527Z,84.65
2017-12-29T11:58:34.435Z,84.36
2017-12-29T11:59:34.433Z,84.27
2017-12-29T12:01:27.337Z,84.08
2017-12-29T12:02:27.341Z,84.27
2017-12-29T12:04:20.271Z,84.36
2017-12-29T12:05:20.259Z,84.55
2017-12-29T12:07:13.203Z,83.80
2017-12-29T12:08:13.165Z,83.98
2017-12-29T12:10:06.086Z,84.55
2017-12-29T12:11:06.085Z,83.98
2017-12-29T12:12:58.997Z,84.08
2017-12-29T12:13:59.008Z,84.74
2017-12-29T12:15:51.927Z,84.36
2017-12-29T12:16:51.923Z,84.27
2017-12-29T12:18:44.839Z,84.46
2017-12-29T12:19:44.838Z,84.46
2017-12-29T12:21:37.728Z,84.55
2017-12-29T12:22:37.739Z,83.80
2017-12-29T12:24:30.648Z,83.98
2017-12-29T12:25:30.651Z,83.89
2017-12-29T12:27:23.576Z,83.70
2017-12-29T12:28:23.577Z,84.46
2017-12-29T12:30:17.484Z,84.55
2017-12-29T12:31:17.498Z,84.55
2017-12-29T12:33:10.420Z,83.32
2017-12-29T12:34:10.416Z,83.42
2017-12-29T12:36:03.326Z,83.51
2017-12-29T12:37:03.343Z,83.32
2017-12-29T12:38:56.257Z,83.51
2017-12-29T12:39:56.254Z,83.61
2017-12-29T12:41:49.171Z,83.51
2017-12-29T12:42:49.183Z,83.32
2017-12-29T12:44:42.104Z,83.98
2017-12-29T12:45:42.100Z,83.98
2017-12-29T12:47:35.012Z,83.89
2017-12-29T12:48:35.007Z,83.42
2017-12-29T12:50:27.901Z,83.51
2017-12-29T12:51:27.915Z,83.51
2017-12-29T12:53:20.839Z,82.94
2017-12-29T12:54:20.848Z,83.04
2017-12-29T12:56:13.799Z,82.47
2017-12-29T12:57:13.817Z,82.28
2017-12-29T12:59:06.746Z,82.37
2017-12-29T13:00:06.722Z,82.28
2017-12-29T13:01:59.619Z,81.71
2017-12-29T13:02:59.635Z,81.52
2017-12-29T13:04:52.584Z,81.81
2017-12-29T13:05:52.575Z,81.81
2017-12-29T13:07:45.476Z,81.62
2017-12-29T13:08:45.483Z,81.14
2017-12-29T13:10:38.482Z,81.43
2017-12-29T13:11:38.481Z,81.18
2017-12-29T13:13:31.777Z,80.71
2017-12-29T13:14:31.375Z,79.95
2017-12-29T13:16:24.337Z,79.76
2017-12-29T13:17:24.332Z,80.62
2017-12-29T13:19:17.228Z,80.71
2017-12-29T13:20:17.246Z,80.62
2017-12-29T13:22:10.192Z,80.24
2017-12-29T13:23:10.150Z,79.66
2017-12-29T13:25:03.051Z,79.19
2017-12-29T13:26:03.064Z,79.00
2017-12-29T13:27:55.972Z,78.53
2017-12-29T13:28:55.978Z,78.15
2017-12-29T13:30:48.882Z,77.67
2017-12-29T13:31:48.889Z,77.58
2017-12-29T13:33:41.808Z,77.58
2017-12-29T13:34:41.803Z,77.01
2017-12-29T13:36:34.703Z,77.20
2017-12-29T13:37:34.713Z,77.29
2017-12-29T13:39:27.634Z,76.54
2017-12-29T13:40:27.632Z,76.63
2017-12-29T13:42:21.024Z,75.21
2017-12-29T13:43:21.044Z,75.96
2017-12-29T13:45:13.977Z,76.54
2017-12-29T13:46:14.058Z,76.06
2017-12-29T13:48:06.858Z,76.06
2017-12-29T13:49:06.884Z,75.49
2017-12-29T13:50:59.854Z,74.92
2017-12-29T13:51:59.830Z,75.02
2017-12-29T13:53:52.751Z,74.64
2017-12-29T13:54:52.711Z,75.31
2017-12-29T13:56:45.661Z,74.07
2017-12-29T13:57:45.642Z,73.50
2017-12-29T13:59:38.618Z,73.50
2017-12-29T14:00:38.631Z,73.50
2017-12-29T14:02:31.595Z,72.93
2017-12-29T14:03:31.566Z,73.60
2017-12-29T14:05:24.704Z,73.50
2017-12-29T14:06:24.471Z,72.93
2017-12-29T14:08:17.430Z,73.50
2017-12-29T14:09:17.443Z,74.16
2017-12-29T14:11:10.338Z,73.60
2017-12-29T14:12:10.569Z,74.22
2017-12-29T14:14:03.662Z,74.51
2017-12-29T14:15:03.753Z,74.69
2017-12-29T14:16:56.704Z,75.07
2017-12-29T14:17:56.697Z,75.17
2017-12-29T14:19:49.623Z,75.84
2017-12-29T14:20:49.617Z,76.03
2017-12-29T14:22:42.566Z,76.40
2017-12-29T14:23:42.551Z,76.59
2017-12-29T14:25:35.444Z,76.50
2017-12-29T14:26:35.453Z,77.25
2017-12-29T14:28:28.395Z,77.16
2017-12-29T14:29:28.388Z,78.02
2017-12-29T14:31:21.577Z,77.54
2017-12-29T14:32:21.619Z,78.20
2017-12-29T14:34:14.522Z,78.20
2017-12-29T14:35:14.529Z,78.30
2017-12-29T14:37:07.691Z,78.73
2017-12-29T14:38:07.706Z,78.83
2017-12-29T14:40:00.616Z,79.21
2017-12-29T14:41:00.701Z,79.58
2017-12-29T14:42:53.607Z,79.87
2017-12-29T14:43:53.569Z,79.68
2017-12-29T14:45:46.467Z,79.49
2017-12-29T14:46:46.476Z,79.87
2017-12-29T14:48:39.395Z,80.53
2017-12-29T14:49:39.399Z,80.25
2017-12-29T14:51:32.326Z,80.63
2017-12-29T14:52:32.308Z,80.63
2017-12-29T14:54:25.275Z,80.44
2017-12-29T14:55:25.272Z,81.01
2017-12-29T14:57:18.189Z,81.01
2017-12-29T14:58:18.203Z,80.91
2017-12-29T15:00:11.094Z,81.57
2017-12-29T15:01:11.122Z,81.48
2017-12-29T15:03:04.221Z,82.24
2017-12-29T15:04:04.240Z,81.86
2017-12-29T15:05:57.095Z,82.05
2017-12-29T15:06:57.113Z,81.95
2017-12-29T15:08:50.037Z,82.33
2017-12-29T15:09:50.031Z,82.90
2017-12-29T15:11:42.930Z,82.62
2017-12-29T15:12:42.931Z,83.14
2017-12-29T15:14:49.762Z,83.52
2017-12-29T15:15:49.761Z,83.24
2017-12-29T15:17:42.791Z,83.81
2017-12-29T15:18:42.746Z,83.62
2017-12-29T15:20:35.661Z,84.09
2017-12-29T15:21:35.680Z,84.09
2017-12-29T15:23:28.554Z,84.75
2017-12-29T15:24:28.571Z,84.38
2017-12-29T15:26:21.478Z,85.23
2017-12-29T15:27:21.478Z,85.04
2017-12-29T15:29:14.398Z,85.13
2017-12-29T15:30:14.392Z,84.75
2017-12-29T15:32:07.306Z,85.42
2017-12-29T15:33:07.305Z,85.04
2017-12-29T15:35:00.235Z,85.51
2017-12-29T15:36:00.230Z,85.61
2017-12-29T15:37:53.137Z,85.42
2017-12-29T15:38:53.139Z,85.23
2017-12-29T15:40:46.050Z,85.61
2017-12-29T15:41:46.061Z,85.61
2017-12-29T15:43:39.137Z,85.94
2017-12-29T15:44:39.130Z,86.13
2017-12-29T15:46:32.043Z,86.32
2017-12-29T15:47:32.069Z,86.51
2017-12-29T15:49:25.457Z,86.60
2017-12-29T15:50:25.455Z,86.22
2017-12-29T15:52:18.688Z,86.98
2017-12-29T15:53:18.697Z,86.98
2017-12-29T15:55:11.605Z,86.70
2017-12-29T15:56:11.598Z,86.79
2017-12-29T15:58:05.413Z,87.36
2017-12-29T15:59:05.712Z,87.74
2017-12-29T16:00:59.073Z,87.46
2017-12-29T16:01:58.975Z,87.65
2017-12-29T16:03:51.873Z,87.84
2017-12-29T16:04:51.849Z,87.74
2017-12-29T16:06:44.775Z,87.65
2017-12-29T16:07:44.764Z,88.40
2017-12-29T16:09:37.663Z,88.21
2017-12-29T16:10:37.670Z,88.40
2017-12-29T16:12:30.594Z,88.02
2017-12-29T16:13:30.582Z,88.49
2017-12-29T16:15:23.494Z,88.02
2017-12-29T16:16:23.508Z,88.02
2017-12-29T16:18:16.780Z,88.21
2017-12-29T16:19:16.913Z,88.12
2017-12-29T16:21:09.930Z,88.12
2017-12-29T16:22:09.901Z,88.31
2017-12-29T16:24:03.239Z,88.59
2017-12-29T16:25:03.231Z,88.40
2017-12-29T16:26:56.246Z,87.74
2017-12-29T16:27:56.221Z,87.93
2017-12-29T16:29:49.337Z,88.40
2017-12-29T16:30:49.343Z,88.59
2017-12-29T16:32:42.275Z,87.84
2017-12-29T16:33:42.280Z,87.84
2017-12-29T16:35:35.191Z,87.74
2017-12-29T16:36:35.250Z,87.93
2017-12-29T16:38:28.137Z,87.65
2017-12-29T16:39:28.127Z,87.65
2017-12-29T16:41:21.022Z,87.36
2017-12-29T16:42:21.034Z,87.46
2017-12-29T16:44:14.537Z,87.17
2017-12-29T16:45:14.489Z,87.17
2017-12-29T16:47:07.884Z,86.98
2017-12-29T16:48:07.895Z,86.89
2017-12-29T16:50:01.181Z,86.70
2017-12-29T16:51:00.841Z,86.70
2017-12-29T16:52:55.136Z,86.60
2017-12-29T16:53:54.321Z,86.13
2017-12-29T16:55:47.327Z,85.85
2017-12-29T16:56:47.313Z,85.09
2017-12-29T16:58:40.371Z,85.19
2017-12-29T16:59:40.246Z,85.42
2017-12-29T17:01:33.697Z,85.13
2017-12-29T17:02:33.728Z,84.94
2017-12-29T17:04:26.651Z,85.23
2017-12-29T17:05:26.657Z,84.94
2017-12-29T17:07:19.583Z,85.04
2017-12-29T17:08:19.591Z,84.56
2017-12-29T17:10:12.488Z,84.38
2017-12-29T17:11:12.502Z,84.28
2017-12-29T17:13:05.468Z,84.66
2017-12-29T17:14:05.418Z,84.75
2017-12-29T17:15:58.335Z,84.38
2017-12-29T17:16:58.364Z,84.00
2017-12-29T17:18:51.234Z,84.19
2017-12-29T17:19:51.249Z,84.19
2017-12-29T17:21:44.156Z,83.24
2017-12-29T17:22:44.159Z,83.43
2017-12-29T17:24:37.065Z,83.05
2017-12-29T17:25:37.075Z,82.86
2017-12-29T17:27:29.993Z,82.95
2017-12-29T17:28:29.988Z,83.14
2017-12-29T17:30:22.901Z,82.95
2017-12-29T17:31:22.906Z,82.95
2017-12-29T17:33:15.834Z,82.57
2017-12-29T17:34:15.879Z,82.86
2017-12-29T17:36:08.750Z,81.72
2017-12-29T17:37:08.731Z,81.82
2017-12-29T17:39:01.657Z,81.92
2017-12-29T17:40:01.659Z,82.20
2017-12-29T17:41:54.578Z,81.72
2017-12-29T17:42:54.580Z,81.15
2017-12-29T17:44:48.020Z,81.15
2017-12-29T17:45:48.018Z,81.15
2017-12-29T17:47:40.917Z,81.15
2017-12-29T17:48:40.927Z,81.15
2017-12-29T17:50:33.835Z,81.15
2017-12-29T17:51:33.837Z,80.96
2017-12-29T17:53:26.812Z,81.15
2017-12-29T17:54:26.816Z,80.58
2017-12-29T17:56:19.719Z,80.40
2017-12-29T17:57:19.723Z,81.06
2017-12-29T17:59:12.645Z,80.49
2017-12-29T18:00:12.632Z,80.58
2017-12-29T18:02:05.526Z,80.77
2017-12-29T18:03:05.538Z,80.58
2017-12-29T18:04:58.447Z,81.15
2017-12-29T18:05:58.448Z,81.06
2017-12-29T18:07:51.366Z,80.40
2017-12-29T18:08:51.349Z,80.68
2017-12-29T18:10:44.251Z,80.58
2017-12-29T18:11:44.268Z,80.21
2017-12-29T18:13:37.829Z,79.83
2017-12-29T18:14:37.836Z,80.40
2017-12-29T18:16:30.734Z,80.49
2017-12-29T18:17:30.743Z,79.64
2017-12-29T18:19:23.900Z,79.93
2017-12-29T18:20:23.875Z,80.58
2017-12-29T18:22:16.852Z,80.40
2017-12-29T18:23:16.859Z,80.21
2017-12-29T18:25:10.739Z,79.55
2017-12-29T18:26:09.779Z,79.55
2017-12-29T18:28:02.867Z,80.40
2017-12-29T18:29:02.879Z,80.30
2017-12-29T18:30:55.846Z,79.55
2017-12-29T18:31:55.844Z,79.64
2017-12-29T18:33:48.759Z,80.40